createdAt,value
2024-03-15T00:00:03.821Z,7.38
2024-03-15T00:02:32.165Z,7.68
2024-03-15T00:05:00.854Z,8.20
2024-03-15T00:07:29.551Z,7.47
2024-03-15T00:09:58.051Z,7.55
2024-03-15T00:12:26.970Z,7.05
2024-03-15T00:14:56.712Z,7.95
2024-03-15T00:17:25.340Z,8.88
2024-03-15T00:19:53.574Z,7.75
2024-03-15T00:22:23.351Z,7.70
2024-03-15T00:24:51.820Z,7.45
2024-03-15T00:27:20.566Z,7.32
2024-03-15T00:29:49.224Z,8.32
2024-03-15T00:32:17.892Z,7.75
2024-03-15T00:34:46.144Z,7.72
2024-03-15T00:37:14.718Z,8.23
2024-03-15T00:39:43.006Z,8.07
2024-03-15T00:42:11.293Z,8.60
2024-03-15T00:44:39.828Z,7.25
2024-03-15T00:47:08.684Z,7.72
2024-03-15T00:49:37.242Z,7.82
2024-03-15T00:52:05.717Z,8.40
2024-03-15T00:54:36.273Z,7.60
2024-03-15T00:57:06.435Z,7.43
2024-03-15T00:59:35.707Z,7.57
2024-03-15T01:02:03.904Z,8.20
2024-03-15T01:04:32.542Z,7.90
2024-03-15T01:07:00.253Z,6.75
2024-03-15T01:09:28.508Z,7.18
2024-03-15T01:11:57.084Z,7.30
2024-03-15T01:14:25.297Z,6.35
2024-03-15T01:16:53.491Z,6.60
2024-03-15T01:19:22.039Z,7.32
2024-03-15T01:21:50.311Z,6.75
2024-03-15T01:24:18.934Z,6.90
2024-03-15T01:26:47.582Z,6.43
2024-03-15T01:29:15.990Z,6.20
2024-03-15T01:31:47.088Z,6.28
2024-03-15T01:34:15.596Z,6.53
2024-03-15T01:36:44.137Z,6.57
2024-03-15T01:39:12.786Z,7.20
2024-03-15T01:41:41.107Z,6.28
2024-03-15T01:44:09.656Z,5.97
2024-03-15T01:46:37.931Z,6.40
2024-03-15T01:49:07.737Z,6.45
2024-03-15T01:51:36.066Z,6.90
2024-03-15T01:54:04.723Z,6.68
2024-03-15T01:56:33.322Z,5.90
2024-03-15T01:59:01.747Z,5.70
2024-03-15T02:01:30.341Z,5.70
2024-03-15T02:03:59.961Z,5.93
2024-03-15T02:06:28.297Z,5.85
2024-03-15T02:08:57.573Z,5.57
2024-03-15T02:11:26.365Z,5.10
2024-03-15T02:13:54.830Z,5.85
2024-03-15T02:16:23.381Z,5.88
2024-03-15T02:18:51.858Z,5.82
2024-03-15T02:21:20.239Z,5.45
2024-03-15T02:23:48.901Z,5.20
2024-03-15T02:26:19.079Z,6.07
2024-03-15T02:28:47.428Z,5.50
2024-03-15T02:31:15.765Z,5.30
2024-03-15T02:33:46.236Z,5.47
2024-03-15T02:36:14.625Z,5.10
2024-03-15T02:38:43.197Z,6.10
2024-03-15T02:41:11.721Z,4.80
2024-03-15T02:43:40.666Z,5.13
2024-03-15T02:46:09.223Z,4.72
2024-03-15T02:48:39.991Z,4.60
2024-03-15T02:51:08.627Z,4.40
2024-03-15T02:53:36.853Z,5.18
2024-03-15T02:56:05.586Z,5.40
2024-03-15T02:58:33.841Z,4.78
2024-03-15T03:01:02.511Z,4.53
2024-03-15T03:03:32.860Z,4.80
2024-03-15T03:06:01.696Z,4.28
2024-03-15T03:08:29.982Z,4.65
2024-03-15T03:10:58.664Z,4.95
2024-03-15T03:13:26.922Z,4.18
2024-03-15T03:15:55.867Z,4.40
2024-03-15T03:18:24.366Z,4.80
2024-03-15T03:20:53.033Z,4.45
2024-03-15T03:23:22.827Z,4.60
2024-03-15T03:25:51.880Z,4.32
2024-03-15T03:28:20.436Z,4.20
2024-03-15T03:30:49.290Z,3.92
2024-03-15T03:33:17.644Z,3.88
2024-03-15T03:35:45.952Z,4.03
2024-03-15T03:38:14.534Z,3.90
2024-03-15T03:40:43.055Z,4.00
2024-03-15T03:43:11.399Z,4.47
2024-03-15T03:45:43.551Z,4.38
2024-03-15T03:48:12.207Z,4.70
2024-03-15T03:50:40.604Z,4.20
2024-03-15T03:53:09.660Z,3.83
2024-03-15T03:55:41.452Z,4.20
2024-03-15T03:58:11.862Z,4.13
2024-03-15T04:00:40.201Z,3.63
2024-03-15T04:03:09.029Z,3.50
2024-03-15T04:05:39.190Z,3.55
2024-03-15T04:08:08.069Z,3.90
2024-03-15T04:10:37.784Z,3.90
2024-03-15T04:13:06.072Z,3.25
2024-03-15T04:15:34.847Z,3.92
2024-03-15T04:18:03.940Z,3.25
2024-03-15T04:20:33.129Z,4.10
2024-03-15T04:23:01.730Z,3.63
2024-03-15T04:25:30.096Z,3.70
2024-03-15T04:27:58.628Z,3.80
2024-03-15T04:30:27.252Z,3.95
2024-03-15T04:32:57.415Z,3.28
2024-03-15T04:35:30.115Z,3.80
2024-03-15T04:37:58.915Z,3.88
2024-03-15T04:40:30.238Z,4.00
2024-03-15T04:42:59.328Z,3.45
2024-03-15T04:45:27.687Z,4.75
2024-03-15T04:47:58.277Z,4.22
2024-03-15T04:50:26.530Z,4.03
2024-03-15T04:52:55.335Z,4.05
2024-03-15T04:55:23.862Z,3.90
2024-03-15T04:57:52.948Z,3.97
2024-03-15T05:00:22.933Z,5.32
2024-03-15T05:02:53.102Z,3.72
2024-03-15T05:05:25.333Z,3.47
2024-03-15T05:07:55.368Z,3.20
2024-03-15T05:10:24.163Z,3.20
2024-03-15T05:12:53.038Z,3.42
2024-03-15T05:15:21.862Z,3.28
2024-03-15T05:17:50.697Z,3.35
2024-03-15T05:20:19.871Z,3.50
2024-03-15T05:22:48.555Z,3.60
2024-03-15T05:25:17.944Z,5.93
2024-03-15T05:27:47.675Z,3.22
2024-03-15T05:30:19.426Z,3.30
2024-03-15T05:32:48.989Z,3.97
2024-03-15T05:35:20.450Z,5.38
2024-03-15T05:37:48.920Z,4.40
2024-03-15T05:40:19.688Z,4.40
2024-03-15T05:42:49.199Z,4.28
2024-03-15T05:45:19.300Z,3.70
2024-03-15T05:47:48.285Z,4.68
2024-03-15T05:50:16.905Z,4.28
2024-03-15T05:52:45.431Z,4.13
2024-03-15T05:55:14.718Z,4.18
2024-03-15T05:57:43.093Z,4.80
2024-03-15T06:00:17.050Z,3.75
2024-03-15T06:02:46.566Z,3.83
2024-03-15T06:05:14.917Z,4.30
2024-03-15T06:07:43.882Z,3.80
2024-03-15T06:10:12.142Z,3.28
2024-03-15T06:12:40.577Z,3.75
2024-03-15T06:15:10.948Z,4.03
2024-03-15T06:17:41.177Z,3.78
2024-03-15T06:20:11.862Z,3.80
2024-03-15T06:22:40.520Z,3.65
2024-03-15T06:25:09.339Z,4.55
2024-03-15T06:27:40.735Z,3.70
2024-03-15T06:30:11.405Z,3.08
2024-03-15T06:32:40.486Z,4.15
2024-03-15T06:35:20.173Z,3.13
2024-03-15T06:37:55.595Z,3.80
2024-03-15T06:40:32.465Z,3.95
2024-03-15T06:43:26.936Z,3.72
2024-03-15T06:45:58.911Z,3.10
2024-03-15T06:48:37.167Z,3.35
2024-03-15T06:51:19.632Z,3.63
2024-03-15T06:53:49.225Z,3.15
2024-03-15T06:56:17.520Z,3.58
2024-03-15T06:58:46.049Z,3.20
2024-03-15T07:01:14.625Z,3.28
2024-03-15T07:03:43.012Z,3.92
2024-03-15T07:06:11.991Z,3.65
2024-03-15T07:08:41.178Z,4.55
2024-03-15T07:11:13.552Z,4.32
2024-03-15T07:13:42.334Z,4.38
2024-03-15T07:16:10.683Z,3.65
2024-03-15T07:18:41.811Z,3.28
2024-03-15T07:21:12.894Z,4.00
2024-03-15T07:23:42.580Z,3.92
2024-03-15T07:26:12.043Z,4.60
2024-03-15T07:28:41.078Z,5.15
2024-03-15T07:31:10.262Z,5.68
2024-03-15T07:33:39.250Z,5.63
2024-03-15T07:36:09.733Z,5.40
2024-03-15T07:38:38.635Z,6.70
2024-03-15T07:41:11.996Z,4.22
2024-03-15T07:43:40.259Z,4.10
2024-03-15T07:46:09.804Z,4.13
2024-03-15T07:48:38.417Z,3.67
2024-03-15T07:51:06.885Z,4.28
2024-03-15T07:53:35.183Z,3.90
2024-03-15T07:56:05.438Z,3.50
2024-03-15T07:58:34.432Z,3.45
2024-03-15T08:01:02.926Z,2.90
2024-03-15T08:03:34.025Z,3.13
2024-03-15T08:06:03.448Z,2.85
2024-03-15T08:08:32.583Z,4.40
2024-03-15T08:11:03.373Z,3.00
2024-03-15T08:13:33.994Z,2.88
2024-03-15T08:16:19.810Z,3.22
2024-03-15T08:18:50.786Z,2.90
2024-03-15T08:21:19.493Z,2.85
2024-03-15T08:23:48.760Z,3.13
2024-03-15T08:26:17.037Z,2.78
2024-03-15T08:28:45.594Z,3.42
2024-03-15T08:31:14.264Z,2.88
2024-03-15T08:33:42.704Z,3.25
2024-03-15T08:36:11.399Z,3.50
2024-03-15T08:38:40.028Z,3.03
2024-03-15T08:41:10.520Z,2.95
2024-03-15T08:43:39.251Z,2.97
2024-03-15T08:46:07.608Z,5.85
2024-03-15T08:48:36.015Z,2.90
2024-03-15T08:51:05.391Z,2.70
2024-03-15T08:53:34.269Z,2.97
2024-03-15T08:56:02.772Z,3.80
2024-03-15T08:58:31.007Z,2.70
2024-03-15T09:01:00.006Z,2.70
2024-03-15T09:03:28.600Z,2.90
2024-03-15T09:05:56.844Z,3.30
2024-03-15T09:08:26.017Z,2.13
2024-03-15T09:10:54.567Z,3.78
2024-03-15T09:13:22.863Z,3.13
2024-03-15T09:15:51.663Z,2.90
2024-03-15T09:18:20.343Z,3.08
2024-03-15T09:20:49.068Z,3.60
2024-03-15T09:23:17.607Z,3.00
2024-03-15T09:25:45.975Z,2.58
2024-03-15T09:28:14.938Z,2.90
2024-03-15T09:30:57.898Z,2.95
2024-03-15T09:33:37.109Z,2.67
2024-03-15T09:36:07.151Z,3.58
2024-03-15T09:38:35.711Z,4.43
2024-03-15T09:41:07.480Z,4.22
2024-03-15T09:43:36.352Z,3.20
2024-03-15T09:46:05.522Z,2.70
2024-03-15T09:48:34.556Z,4.63
2024-03-15T09:51:05.637Z,2.65
2024-03-15T09:53:34.146Z,5.35
2024-03-15T09:56:05.220Z,2.65
2024-03-15T09:58:34.478Z,2.75
2024-03-15T10:01:03.428Z,3.30
2024-03-15T10:03:32.108Z,3.08
2024-03-15T10:06:02.908Z,3.25
2024-03-15T10:08:31.644Z,4.38
2024-03-15T10:11:00.103Z,5.53
2024-03-15T10:13:31.288Z,3.92
2024-03-15T10:16:01.374Z,2.67
2024-03-15T10:18:30.805Z,2.85
2024-03-15T10:20:59.642Z,2.90
2024-03-15T10:23:28.224Z,2.80
2024-03-15T10:26:02.764Z,2.67
2024-03-15T10:28:31.334Z,3.10
2024-03-15T10:30:59.757Z,2.78
2024-03-15T10:33:28.522Z,4.68
2024-03-15T10:35:56.891Z,3.53
2024-03-15T10:38:25.559Z,2.28
2024-03-15T10:40:54.100Z,2.83
2024-03-15T10:43:22.362Z,2.55
2024-03-15T10:45:51.145Z,2.92
2024-03-15T10:48:21.103Z,2.67
2024-03-15T10:50:49.661Z,3.33
2024-03-15T10:53:18.055Z,4.35
2024-03-15T10:55:49.244Z,2.15
2024-03-15T10:58:17.934Z,2.10
2024-03-15T11:00:48.573Z,3.22
2024-03-15T11:03:18.111Z,3.33
2024-03-15T11:05:47.199Z,1.83
2024-03-15T11:08:15.496Z,2.47
2024-03-15T11:10:53.974Z,2.65
2024-03-15T11:13:24.531Z,1.63
2024-03-15T11:15:54.775Z,3.08
2024-03-15T11:18:23.844Z,2.70
2024-03-15T11:20:53.916Z,2.08
2024-03-15T11:23:22.249Z,2.60
2024-03-15T11:25:57.008Z,1.17
2024-03-15T11:28:25.458Z,1.35
2024-03-15T11:30:53.717Z,1.35
2024-03-15T11:33:22.478Z,1.50
2024-03-15T11:35:50.898Z,1.38
2024-03-15T11:38:19.433Z,1.98
2024-03-15T11:40:47.795Z,1.83
2024-03-15T11:43:16.503Z,2.03
2024-03-15T11:45:45.052Z,2.28
2024-03-15T11:48:17.297Z,2.00
2024-03-15T11:50:46.202Z,1.35
2024-03-15T11:53:16.174Z,1.50
2024-03-15T11:55:44.750Z,3.75
2024-03-15T11:58:15.400Z,1.67
2024-03-15T12:00:43.791Z,2.47
2024-03-15T12:03:12.756Z,1.48
2024-03-15T12:05:43.066Z,1.88
2024-03-15T12:08:13.738Z,3.67
2024-03-15T12:10:42.056Z,2.38
2024-03-15T12:13:17.705Z,1.50
2024-03-15T12:15:46.819Z,1.50
2024-03-15T12:18:15.960Z,1.60
2024-03-15T12:20:44.321Z,2.65
2024-03-15T12:23:14.177Z,1.98
2024-03-15T12:25:42.453Z,2.10
2024-03-15T12:28:12.150Z,1.98
2024-03-15T12:30:41.903Z,2.00
2024-03-15T12:33:11.058Z,2.03
2024-03-15T12:35:39.511Z,1.55
2024-03-15T12:38:08.291Z,7.95
2024-03-15T12:40:37.040Z,2.58
2024-03-15T12:43:05.769Z,1.50
2024-03-15T12:45:34.056Z,1.83
2024-03-15T12:48:02.439Z,1.65
2024-03-15T12:50:32.854Z,1.58
2024-03-15T12:53:02.760Z,1.58
2024-03-15T12:55:31.247Z,2.75
2024-03-15T12:57:59.649Z,3.83
2024-03-15T13:00:31.372Z,1.60
2024-03-15T13:02:59.880Z,2.35
2024-03-15T13:05:28.414Z,2.58
2024-03-15T13:07:56.943Z,1.58
2024-03-15T13:10:25.168Z,1.63
2024-03-15T13:12:54.121Z,1.70
2024-03-15T13:15:23.803Z,1.70
2024-03-15T13:17:54.306Z,2.85
2024-03-15T13:20:23.345Z,1.98
2024-03-15T13:22:54.744Z,2.22
2024-03-15T13:25:33.747Z,1.50
2024-03-15T13:28:07.907Z,1.50
2024-03-15T13:30:39.208Z,1.95
2024-03-15T13:33:10.844Z,1.77
2024-03-15T13:35:43.004Z,1.10
2024-03-15T13:38:15.876Z,1.35
2024-03-15T13:40:45.183Z,1.40
2024-03-15T13:43:13.809Z,1.90
2024-03-15T13:45:42.126Z,1.13
2024-03-15T13:48:13.540Z,1.27
2024-03-15T13:50:42.408Z,1.52
2024-03-15T13:53:11.012Z,1.10
2024-03-15T13:55:40.809Z,1.33
2024-03-15T13:58:09.675Z,1.25
2024-03-15T14:00:41.152Z,0.90
2024-03-15T14:03:09.454Z,2.60
2024-03-15T14:05:39.422Z,1.27
2024-03-15T14:08:09.471Z,1.00
2024-03-15T14:10:37.966Z,1.55
2024-03-15T14:13:07.074Z,1.38
2024-03-15T14:15:36.326Z,1.70
2024-03-15T14:18:06.750Z,1.10
2024-03-15T14:20:36.716Z,1.17
2024-03-15T14:23:05.092Z,0.80
2024-03-15T14:25:34.056Z,1.33
2024-03-15T14:28:03.365Z,2.42
2024-03-15T14:30:35.057Z,1.75
2024-03-15T14:33:03.752Z,1.15
2024-03-15T14:35:32.273Z,1.60
2024-03-15T14:38:01.687Z,2.30
2024-03-15T14:40:30.783Z,1.40
2024-03-15T14:42:59.213Z,1.00
2024-03-15T14:45:28.432Z,1.65
2024-03-15T14:48:01.850Z,0.80
2024-03-15T14:50:33.109Z,1.00
2024-03-15T14:53:02.631Z,1.77
2024-03-15T14:55:34.984Z,1.48
2024-03-15T14:58:04.315Z,2.22
2024-03-15T15:00:33.937Z,1.70
2024-03-15T15:03:02.752Z,1.40
2024-03-15T15:05:31.285Z,3.47
2024-03-15T15:08:01.614Z,1.60
2024-03-15T15:10:30.843Z,1.40
2024-03-15T15:13:00.071Z,7.70
2024-03-15T15:15:29.366Z,2.08
2024-03-15T15:17:58.013Z,1.27
2024-03-15T15:20:26.608Z,1.13
2024-03-15T15:22:54.863Z,1.17
2024-03-15T15:25:23.601Z,1.63
2024-03-15T15:27:52.094Z,1.73
2024-03-15T15:30:20.988Z,3.20
2024-03-15T15:32:50.043Z,0.70
2024-03-15T15:35:18.605Z,1.40
2024-03-15T15:37:47.181Z,2.22
2024-03-15T15:40:17.994Z,1.70
2024-03-15T15:42:49.003Z,2.28
2024-03-15T15:45:19.285Z,1.92
2024-03-15T15:47:47.887Z,1.67
2024-03-15T15:50:19.883Z,2.40
2024-03-15T15:52:49.357Z,0.77
2024-03-15T15:55:18.998Z,0.90
2024-03-15T15:57:50.974Z,1.10
2024-03-15T16:00:21.687Z,1.70
2024-03-15T16:02:51.314Z,0.93
2024-03-15T16:05:20.128Z,0.93
2024-03-15T16:07:48.694Z,1.13
2024-03-15T16:10:18.166Z,1.40
2024-03-15T16:12:48.556Z,1.38
2024-03-15T16:15:16.929Z,1.35
2024-03-15T16:17:45.538Z,1.10
2024-03-15T16:20:14.710Z,1.50
2024-03-15T16:22:43.220Z,1.20
2024-03-15T16:25:11.874Z,1.20
2024-03-15T16:27:40.278Z,1.10
2024-03-15T16:30:09.165Z,1.83
2024-03-15T16:32:37.713Z,1.15
2024-03-15T16:35:08.418Z,3.45
2024-03-15T16:37:37.596Z,1.55
2024-03-15T16:40:08.452Z,3.22
2024-03-15T16:42:37.666Z,2.13
2024-03-15T16:45:07.578Z,1.50
2024-03-15T16:47:35.948Z,1.33
2024-03-15T16:50:07.067Z,1.60
2024-03-15T16:52:36.773Z,2.00
2024-03-15T16:55:06.466Z,2.00
2024-03-15T16:57:34.798Z,2.92
2024-03-15T17:00:15.505Z,1.95
2024-03-15T17:02:43.828Z,1.42
2024-03-15T17:05:12.054Z,1.50
2024-03-15T17:07:40.897Z,1.85
2024-03-15T17:10:12.111Z,2.33
2024-03-15T17:12:41.194Z,1.85
2024-03-15T17:15:11.027Z,1.40
2024-03-15T17:17:39.396Z,2.97
2024-03-15T17:20:11.007Z,2.22
2024-03-15T17:22:39.815Z,1.85
2024-03-15T17:25:09.385Z,1.92
2024-03-15T17:27:38.175Z,2.00
2024-03-15T17:30:08.153Z,1.85
2024-03-15T17:32:37.032Z,2.38
2024-03-15T17:35:05.913Z,2.05
2024-03-15T17:37:34.305Z,1.73
2024-03-15T17:40:02.734Z,1.83
2024-03-15T17:42:32.280Z,3.05
2024-03-15T17:45:00.576Z,2.17
2024-03-15T17:47:28.893Z,2.15
2024-03-15T17:49:57.362Z,4.43
2024-03-15T17:52:26.136Z,1.77
2024-03-15T17:54:54.787Z,1.92
2024-03-15T17:57:23.161Z,2.55
2024-03-15T17:59:51.717Z,3.72
2024-03-15T18:02:20.026Z,1.63
2024-03-15T18:04:48.283Z,1.98
2024-03-15T18:07:16.662Z,2.30
2024-03-15T18:09:44.916Z,5.50
2024-03-15T18:12:13.523Z,2.58
2024-03-15T18:14:41.750Z,2.25
2024-03-15T18:17:10.287Z,1.90
2024-03-15T18:19:38.834Z,3.40
2024-03-15T18:22:07.167Z,2.70
2024-03-15T18:24:35.484Z,2.67
2024-03-15T18:27:05.007Z,2.10
2024-03-15T18:29:33.265Z,2.90
2024-03-15T18:32:01.798Z,4.10
2024-03-15T18:34:30.062Z,3.60
2024-03-15T18:36:59.368Z,2.72
2024-03-15T18:39:30.375Z,2.08
2024-03-15T18:41:59.114Z,2.60
2024-03-15T18:44:29.858Z,2.60
2024-03-15T18:46:58.996Z,2.28
2024-03-15T18:49:27.621Z,2.80
2024-03-15T18:51:55.972Z,2.20
2024-03-15T18:54:24.528Z,2.65
2024-03-15T18:56:54.825Z,4.07
2024-03-15T18:59:28.096Z,2.83
2024-03-15T19:01:57.648Z,5.55
2024-03-15T19:04:26.200Z,3.72
2024-03-15T19:06:54.467Z,2.90
2024-03-15T19:09:23.124Z,2.90
2024-03-15T19:11:51.829Z,4.07
2024-03-15T19:14:22.258Z,3.97
2024-03-15T19:16:50.491Z,2.67
2024-03-15T19:19:19.035Z,3.67
2024-03-15T19:24:15.914Z,3.50
2024-03-15T19:26:45.214Z,2.30
2024-03-15T19:29:13.421Z,2.58
2024-03-15T19:31:41.700Z,3.38
2024-03-15T19:34:10.157Z,5.38
2024-03-15T19:36:38.776Z,2.35
2024-03-15T19:39:09.235Z,2.60
2024-03-15T19:41:39.446Z,5.90
2024-03-15T19:44:07.737Z,3.33
2024-03-15T19:46:36.500Z,3.30
2024-03-15T19:49:05.079Z,2.72
2024-03-15T19:51:34.171Z,2.45
2024-03-15T19:54:02.500Z,3.55
2024-03-15T19:56:31.035Z,2.22
2024-03-15T19:58:59.442Z,2.40
2024-03-15T20:01:30.145Z,2.95
2024-03-15T20:03:58.675Z,2.22
2024-03-15T20:06:28.397Z,2.72
2024-03-15T20:08:57.380Z,2.05
2024-03-15T20:11:25.949Z,2.03
2024-03-15T20:13:54.215Z,2.03
2024-03-15T20:16:25.872Z,2.22
2024-03-15T20:18:55.808Z,2.85
2024-03-15T20:21:24.436Z,2.97
2024-03-15T20:23:52.721Z,4.35
2024-03-15T20:26:24.432Z,1.85
2024-03-15T20:28:53.909Z,2.30
2024-03-15T20:31:22.463Z,1.83
2024-03-15T20:33:50.760Z,2.67
2024-03-15T20:36:19.167Z,2.42
2024-03-15T20:38:48.082Z,2.90
2024-03-15T20:41:18.656Z,3.20
2024-03-15T20:43:47.289Z,2.72
2024-03-15T20:46:15.825Z,2.25
2024-03-15T20:48:44.162Z,5.32
2024-03-15T20:51:14.875Z,3.45
2024-03-15T20:53:47.334Z,1.90
2024-03-15T20:56:15.585Z,2.35
2024-03-15T20:58:44.093Z,1.92
2024-03-15T21:01:12.492Z,4.57
2024-03-15T21:03:41.162Z,3.10
2024-03-15T21:06:09.901Z,2.78
2024-03-15T21:08:38.250Z,2.58
2024-03-15T21:11:06.866Z,2.13
2024-03-15T21:13:36.054Z,3.58
2024-03-15T21:16:04.821Z,2.20
2024-03-15T21:18:33.608Z,2.60
2024-03-15T21:21:01.802Z,2.75
2024-03-15T21:23:30.091Z,2.95
2024-03-15T21:25:58.338Z,2.05
2024-03-15T21:28:26.885Z,2.10
2024-03-15T21:30:57.326Z,2.17
2024-03-15T21:33:26.133Z,1.77
2024-03-15T21:35:56.836Z,2.58
2024-03-15T21:38:26.249Z,2.22
2024-03-15T21:40:55.015Z,4.22
2024-03-15T21:43:27.211Z,2.60
2024-03-15T21:45:58.303Z,2.03
2024-03-15T21:48:27.187Z,7.03
2024-03-15T21:50:55.917Z,3.45
2024-03-15T21:53:24.189Z,2.05
2024-03-15T21:55:54.564Z,2.28
2024-03-15T21:58:23.085Z,2.20
2024-03-15T22:00:58.182Z,4.20
2024-03-15T22:03:27.196Z,3.50
2024-03-15T22:05:55.890Z,3.15
2024-03-15T22:08:25.617Z,2.78
2024-03-15T22:10:54.980Z,4.40
2024-03-15T22:13:24.266Z,3.78
2024-03-15T22:15:55.319Z,3.78
2024-03-15T22:18:23.747Z,4.03
2024-03-15T22:20:52.106Z,3.60
2024-03-15T22:23:20.419Z,3.25
2024-03-15T22:25:50.852Z,3.33
2024-03-15T22:28:19.226Z,2.60
2024-03-15T22:30:52.061Z,2.38
2024-03-15T22:33:20.594Z,2.50
2024-03-15T22:35:49.321Z,3.00
2024-03-15T22:38:17.982Z,2.50
2024-03-15T22:40:46.246Z,3.03
2024-03-15T22:43:15.297Z,2.15
2024-03-15T22:45:44.961Z,2.05
2024-03-15T22:48:13.280Z,2.60
2024-03-15T22:50:42.128Z,2.03
2024-03-15T22:53:13.429Z,3.03
2024-03-15T22:55:41.935Z,2.30
2024-03-15T22:58:10.346Z,3.33
2024-03-15T23:00:44.291Z,2.40
2024-03-15T23:03:13.949Z,4.00
2024-03-15T23:05:42.267Z,4.63
2024-03-15T23:08:10.879Z,3.20
2024-03-15T23:10:42.011Z,3.17
2024-03-15T23:13:12.903Z,3.10
2024-03-15T23:15:41.357Z,4.70
2024-03-15T23:18:10.671Z,3.10
2024-03-15T23:20:39.113Z,2.40
2024-03-15T23:23:08.418Z,2.70
2024-03-15T23:25:37.776Z,2.40
2024-03-15T23:28:06.820Z,3.90
2024-03-15T23:30:36.033Z,2.45
2024-03-15T23:33:07.248Z,1.60
2024-03-15T23:35:36.947Z,2.00
2024-03-15T23:38:06.949Z,2.53
2024-03-15T23:40:38.974Z,1.83
2024-03-15T23:43:09.884Z,2.55
2024-03-15T23:45:38.887Z,2.35
2024-03-15T23:48:07.960Z,3.13
2024-03-15T23:50:36.338Z,2.35
2024-03-15T23:53:04.729Z,1.75
2024-03-15T23:55:33.258Z,2.95
2024-03-15T23:58:01.547Z,2.55
